createdAt,value
2017-12-31T00:01:44.727Z,75.60
2017-12-31T00:04:13.726Z,75.60
2017-12-31T00:06:41.957Z,75.70
2017-12-31T00:09:10.402Z,74.70
2017-12-31T00:11:39.097Z,74.60
2017-12-31T00:14:08.412Z,74.00
2017-12-31T00:16:37.337Z,74.00
2017-12-31T00:19:06.041Z,74.00
2017-12-31T00:21:35.494Z,73.90
2017-12-31T00:24:03.698Z,73.80
2017-12-31T00:26:31.861Z,73.70
2017-12-31T00:29:01.318Z,73.70
2017-12-31T00:31:29.798Z,73.50
2017-12-31T00:33:58.738Z,73.60
2017-12-31T00:36:27.003Z,73.80
2017-12-31T00:38:56.782Z,73.90
2017-12-31T00:41:25.654Z,73.70
2017-12-31T00:43:54.999Z,73.50
2017-12-31T00:46:23.608Z,73.20
2017-12-31T00:48:52.791Z,72.80
2017-12-31T00:51:21.874Z,73.00
2017-12-31T00:53:50.525Z,72.20
2017-12-31T00:56:18.867Z,72.10
2017-12-31T00:58:47.582Z,72.00
2017-12-31T01:01:16.765Z,71.90
2017-12-31T01:03:45.216Z,71.60
2017-12-31T01:06:14.921Z,71.00
2017-12-31T01:08:44.214Z,71.30
2017-12-31T01:11:14.625Z,70.90
2017-12-31T01:13:43.232Z,70.90
2017-12-31T01:16:12.530Z,70.80
2017-12-31T01:18:40.610Z,70.60
2017-12-31T01:21:09.593Z,70.60
2017-12-31T01:23:38.531Z,70.50
2017-12-31T01:26:06.759Z,70.60
2017-12-31T01:28:35.021Z,70.10
2017-12-31T01:31:04.468Z,70.20
2017-12-31T01:33:33.452Z,70.20
2017-12-31T01:36:02.481Z,69.90
2017-12-31T01:38:31.288Z,70.30
2017-12-31T01:41:00.270Z,69.60
2017-12-31T01:43:29.086Z,69.40
2017-12-31T01:45:57.900Z,69.20
2017-12-31T01:48:27.740Z,70.00
2017-12-31T01:50:56.912Z,70.00
2017-12-31T01:53:25.605Z,69.70
2017-12-31T01:55:54.656Z,69.30
2017-12-31T01:58:23.614Z,69.70
2017-12-31T02:00:52.826Z,69.70
2017-12-31T02:03:23.555Z,69.50
2017-12-31T02:05:51.644Z,69.50
2017-12-31T02:08:21.052Z,69.70
2017-12-31T02:10:49.796Z,69.30
2017-12-31T02:13:18.725Z,69.60
2017-12-31T02:15:47.476Z,69.50
2017-12-31T02:18:16.097Z,70.50
2017-12-31T02:20:45.736Z,70.00
2017-12-31T02:23:15.495Z,69.70
2017-12-31T02:25:44.082Z,69.60
2017-12-31T02:28:13.382Z,69.60
2017-12-31T02:30:42.121Z,69.40
2017-12-31T02:33:11.353Z,69.10
2017-12-31T02:35:40.070Z,68.80
2017-12-31T02:38:08.971Z,68.90
2017-12-31T02:40:38.014Z,68.70
2017-12-31T02:43:06.786Z,69.10
2017-12-31T02:45:34.980Z,69.00
2017-12-31T02:48:03.733Z,69.30
2017-12-31T02:50:32.897Z,68.90
2017-12-31T02:53:01.453Z,68.30
2017-12-31T02:55:29.828Z,68.20
2017-12-31T02:57:58.509Z,68.00
2017-12-31T03:00:26.681Z,68.10
2017-12-31T03:02:55.721Z,67.90
2017-12-31T03:05:23.770Z,67.80
2017-12-31T03:07:52.530Z,68.00
2017-12-31T03:10:21.658Z,67.70
2017-12-31T03:12:49.870Z,67.60
2017-12-31T03:15:18.261Z,67.30
2017-12-31T03:17:47.401Z,67.50
2017-12-31T03:20:16.373Z,67.40
2017-12-31T03:22:44.716Z,67.10
2017-12-31T03:25:13.332Z,67.30
2017-12-31T03:27:42.452Z,66.80
2017-12-31T03:30:10.537Z,66.70
2017-12-31T03:32:39.184Z,66.20
2017-12-31T03:35:08.162Z,66.30
2017-12-31T03:37:37.141Z,66.00
2017-12-31T03:40:06.757Z,65.80
2017-12-31T03:42:35.418Z,65.20
2017-12-31T03:45:05.100Z,65.70
2017-12-31T03:47:33.402Z,65.70
2017-12-31T03:50:02.328Z,65.40
2017-12-31T03:52:31.313Z,65.20
2017-12-31T03:55:00.047Z,64.80
2017-12-31T03:57:29.291Z,65.00
2017-12-31T03:59:58.991Z,64.60
2017-12-31T04:02:27.449Z,64.90
2017-12-31T04:04:56.011Z,65.00
2017-12-31T04:07:25.670Z,65.10
2017-12-31T04:09:54.339Z,65.60
2017-12-31T04:12:23.030Z,65.80
2017-12-31T04:14:52.009Z,66.10
2017-12-31T04:17:21.326Z,65.80
2017-12-31T04:19:50.602Z,65.80
2017-12-31T04:22:19.546Z,66.00
2017-12-31T04:24:48.566Z,66.20
2017-12-31T04:27:18.374Z,66.20
2017-12-31T04:29:46.580Z,66.20
2017-12-31T04:32:16.176Z,65.90
2017-12-31T04:34:45.789Z,65.60
2017-12-31T04:37:14.431Z,65.60
2017-12-31T04:39:43.367Z,65.70
2017-12-31T04:42:11.854Z,65.60
2017-12-31T04:44:40.099Z,65.90
2017-12-31T04:47:09.419Z,65.50
2017-12-31T04:49:38.451Z,65.50
2017-12-31T04:52:06.968Z,65.90
2017-12-31T04:54:36.193Z,66.30
2017-12-31T04:57:04.568Z,66.90
2017-12-31T04:59:34.149Z,67.20
2017-12-31T05:02:02.944Z,67.40
2017-12-31T05:04:30.979Z,67.50
2017-12-31T05:06:59.161Z,67.50
2017-12-31T05:09:27.851Z,67.40
2017-12-31T05:11:57.006Z,67.40
2017-12-31T05:14:25.658Z,67.60
2017-12-31T05:16:53.911Z,67.60
2017-12-31T05:19:23.403Z,67.50
2017-12-31T05:21:51.488Z,67.40
2017-12-31T05:24:21.005Z,67.00
2017-12-31T05:26:50.205Z,67.00
2017-12-31T05:29:18.445Z,67.10
2017-12-31T05:31:47.347Z,66.60
2017-12-31T05:34:15.743Z,66.70
2017-12-31T05:36:44.431Z,66.10
2017-12-31T05:39:12.614Z,66.00
2017-12-31T05:41:40.745Z,65.90
2017-12-31T05:44:09.438Z,65.40
2017-12-31T05:46:39.429Z,65.70
2017-12-31T05:49:08.330Z,65.80
2017-12-31T05:51:38.683Z,65.80
2017-12-31T05:54:07.606Z,65.60
2017-12-31T05:56:36.363Z,65.40
2017-12-31T05:59:05.266Z,65.20
2017-12-31T06:01:34.213Z,64.90
2017-12-31T06:04:03.226Z,64.90
2017-12-31T06:06:32.521Z,64.90
2017-12-31T06:09:02.204Z,65.10
2017-12-31T06:11:31.364Z,65.10
2017-12-31T06:13:59.552Z,65.70
2017-12-31T06:16:27.984Z,65.60
2017-12-31T06:18:56.851Z,65.60
2017-12-31T06:21:26.072Z,66.30
2017-12-31T06:23:54.222Z,65.80
2017-12-31T06:26:22.894Z,65.40
2017-12-31T06:28:51.115Z,64.90
2017-12-31T06:31:20.339Z,65.20
2017-12-31T06:33:49.364Z,65.00
2017-12-31T06:36:18.028Z,64.80
2017-12-31T06:38:46.954Z,64.90
2017-12-31T06:41:15.679Z,64.80
2017-12-31T06:43:44.340Z,65.30
2017-12-31T06:46:12.998Z,65.50
2017-12-31T06:48:41.393Z,65.60
2017-12-31T06:51:10.623Z,66.10
2017-12-31T06:53:39.123Z,66.00
2017-12-31T06:56:08.099Z,66.10
2017-12-31T06:58:37.046Z,65.90
2017-12-31T07:01:05.552Z,67.00
2017-12-31T07:03:33.938Z,67.20
2017-12-31T07:06:02.192Z,65.70
2017-12-31T07:08:31.220Z,65.80
2017-12-31T07:11:00.289Z,65.80
2017-12-31T07:13:28.884Z,66.90
2017-12-31T07:15:57.536Z,67.00
2017-12-31T07:18:26.505Z,67.20
2017-12-31T07:20:54.687Z,67.20
2017-12-31T07:23:23.060Z,67.30
2017-12-31T07:25:52.356Z,67.40
2017-12-31T07:28:21.189Z,67.50
2017-12-31T07:30:50.131Z,67.50
2017-12-31T07:33:18.967Z,67.20
2017-12-31T07:35:47.594Z,67.50
2017-12-31T07:38:15.919Z,67.30
2017-12-31T07:40:44.062Z,66.80
2017-12-31T07:43:13.650Z,67.70
2017-12-31T07:45:42.285Z,67.70
2017-12-31T07:48:10.577Z,67.70
2017-12-31T07:50:39.243Z,67.80
2017-12-31T07:53:08.470Z,67.90
2017-12-31T07:55:37.172Z,68.00
2017-12-31T07:58:05.425Z,68.00
2017-12-31T08:00:33.881Z,67.80
2017-12-31T08:03:02.503Z,67.80
2017-12-31T08:05:31.075Z,68.00
2017-12-31T08:07:59.303Z,68.00
2017-12-31T08:10:28.010Z,68.20
2017-12-31T08:12:56.327Z,68.40
2017-12-31T08:15:26.377Z,68.20
2017-12-31T08:17:54.520Z,67.90
2017-12-31T08:20:25.279Z,67.30
2017-12-31T08:22:53.723Z,67.20
2017-12-31T08:25:23.886Z,66.90
2017-12-31T08:27:52.541Z,66.90
2017-12-31T08:30:22.446Z,66.70
2017-12-31T08:32:51.648Z,66.40
2017-12-31T08:35:19.677Z,66.20
2017-12-31T08:37:47.878Z,64.60
2017-12-31T08:40:16.444Z,64.10
2017-12-31T08:42:44.673Z,64.10
2017-12-31T08:45:13.071Z,63.70
2017-12-31T08:47:41.578Z,63.70
2017-12-31T08:50:10.363Z,62.30
2017-12-31T08:52:38.928Z,60.00
2017-12-31T08:55:07.322Z,58.70
2017-12-31T08:57:36.373Z,57.60
2017-12-31T09:00:04.751Z,57.70
2017-12-31T09:02:33.485Z,56.90
2017-12-31T09:05:02.392Z,56.40
2017-12-31T09:07:31.661Z,55.60
2017-12-31T09:10:00.780Z,55.40
2017-12-31T09:12:29.325Z,55.10
2017-12-31T09:14:57.536Z,53.30
2017-12-31T09:17:26.573Z,54.40
2017-12-31T09:19:55.108Z,55.30
2017-12-31T09:22:24.543Z,55.90
2017-12-31T09:24:53.058Z,56.10
2017-12-31T09:27:21.263Z,56.40
2017-12-31T09:29:50.656Z,56.70
2017-12-31T09:32:18.942Z,56.70
2017-12-31T09:34:47.347Z,56.90
2017-12-31T09:37:15.698Z,56.40
2017-12-31T09:39:44.896Z,55.90
2017-12-31T09:42:14.101Z,55.50
2017-12-31T09:44:43.274Z,55.50
2017-12-31T09:47:12.554Z,55.40
2017-12-31T09:49:41.727Z,55.80
2017-12-31T09:52:11.180Z,55.90
2017-12-31T09:54:39.505Z,55.60
2017-12-31T09:57:08.502Z,55.90
2017-12-31T09:59:37.803Z,55.90
2017-12-31T10:02:07.065Z,55.40
2017-12-31T10:04:36.118Z,54.50
2017-12-31T10:07:04.407Z,54.50
2017-12-31T10:09:32.456Z,53.40
2017-12-31T10:12:02.182Z,52.30
2017-12-31T10:14:30.346Z,52.40
2017-12-31T10:16:59.180Z,52.80
2017-12-31T10:19:27.530Z,52.40
2017-12-31T10:21:57.000Z,50.90
2017-12-31T10:24:26.505Z,50.90
2017-12-31T10:26:55.860Z,48.70
2017-12-31T10:29:24.764Z,48.70
2017-12-31T10:31:54.121Z,49.40
2017-12-31T10:34:22.542Z,49.00
2017-12-31T10:36:51.169Z,49.00
2017-12-31T10:39:21.663Z,48.90
2017-12-31T10:41:50.650Z,49.20
2017-12-31T10:44:19.937Z,49.50
2017-12-31T10:46:48.919Z,48.80
2017-12-31T10:49:18.039Z,49.20
2017-12-31T10:51:46.231Z,49.90
2017-12-31T10:54:15.268Z,49.20
2017-12-31T10:56:43.941Z,47.90
2017-12-31T10:59:12.928Z,45.60
2017-12-31T11:01:41.963Z,46.10
2017-12-31T11:04:11.396Z,46.10
2017-12-31T11:06:40.268Z,45.70
2017-12-31T11:09:09.021Z,43.90
2017-12-31T11:11:37.881Z,42.00
2017-12-31T11:14:07.987Z,39.30
2017-12-31T11:16:38.291Z,39.20
2017-12-31T11:19:07.064Z,38.60
2017-12-31T11:21:35.543Z,36.50
2017-12-31T11:24:03.775Z,37.10
2017-12-31T11:26:32.239Z,36.90
2017-12-31T11:29:01.538Z,36.50
2017-12-31T11:31:30.698Z,36.70
2017-12-31T11:33:58.691Z,36.10
2017-12-31T11:36:28.196Z,37.00
2017-12-31T11:38:56.215Z,38.10
2017-12-31T11:41:24.971Z,38.20
2017-12-31T11:43:53.481Z,38.40
2017-12-31T11:46:22.297Z,39.30
2017-12-31T11:48:51.001Z,41.30
2017-12-31T11:51:19.548Z,42.30
2017-12-31T11:53:47.633Z,42.60
2017-12-31T11:56:16.370Z,42.50
2017-12-31T11:58:45.960Z,42.80
2017-12-31T12:01:15.550Z,42.40
2017-12-31T12:03:43.683Z,42.30
2017-12-31T12:06:12.003Z,43.20
2017-12-31T12:08:40.212Z,43.00
2017-12-31T12:11:08.438Z,43.30
2017-12-31T12:13:36.866Z,43.30
2017-12-31T12:16:05.490Z,43.80
2017-12-31T12:18:34.454Z,44.40
2017-12-31T12:21:02.922Z,44.60
2017-12-31T12:23:32.248Z,45.00
2017-12-31T12:26:01.443Z,44.80
2017-12-31T12:28:29.963Z,45.30
2017-12-31T12:30:58.203Z,44.60
2017-12-31T12:33:26.349Z,45.00
2017-12-31T12:35:55.783Z,44.80
2017-12-31T12:38:23.955Z,45.40
2017-12-31T12:40:52.763Z,45.70
2017-12-31T12:43:22.065Z,46.00
2017-12-31T12:45:50.541Z,45.80
2017-12-31T12:48:20.153Z,45.70
2017-12-31T12:50:48.945Z,45.50
2017-12-31T12:53:17.903Z,45.60
2017-12-31T12:55:46.600Z,45.50
2017-12-31T12:58:15.660Z,45.70
2017-12-31T13:00:44.287Z,45.90
2017-12-31T13:03:13.624Z,45.30
2017-12-31T13:05:42.394Z,45.30
2017-12-31T13:08:10.748Z,45.20
2017-12-31T13:10:38.954Z,45.10
2017-12-31T13:13:07.128Z,45.30
2017-12-31T13:15:36.165Z,45.40
2017-12-31T13:18:04.543Z,44.90
2017-12-31T13:20:33.318Z,44.80
2017-12-31T13:23:01.887Z,44.80
2017-12-31T13:25:31.003Z,42.80
2017-12-31T13:27:59.321Z,41.60
2017-12-31T13:30:27.773Z,40.30
2017-12-31T13:32:56.200Z,39.30
2017-12-31T13:35:24.370Z,39.30
2017-12-31T13:37:53.944Z,39.70
2017-12-31T13:40:23.929Z,39.50
2017-12-31T13:42:52.682Z,39.40
2017-12-31T13:45:22.087Z,39.20
2017-12-31T13:47:50.305Z,39.30
2017-12-31T13:50:18.252Z,38.50
2017-12-31T13:52:47.512Z,36.70
2017-12-31T13:55:16.287Z,37.20
2017-12-31T13:57:45.240Z,35.30
2017-12-31T14:00:13.895Z,36.00
2017-12-31T14:02:42.943Z,37.20
2017-12-31T14:05:11.602Z,37.90
2017-12-31T14:07:39.785Z,38.80
2017-12-31T14:10:09.167Z,37.90
2017-12-31T14:12:37.326Z,37.50
2017-12-31T14:15:05.511Z,36.80
2017-12-31T14:17:37.416Z,36.90
2017-12-31T14:20:06.612Z,37.40
2017-12-31T14:22:36.180Z,39.80
2017-12-31T14:25:05.065Z,43.20
2017-12-31T14:27:33.122Z,43.20
2017-12-31T14:30:01.824Z,44.40
2017-12-31T14:32:30.338Z,44.90
2017-12-31T14:34:58.564Z,45.50
2017-12-31T14:37:27.255Z,45.90
2017-12-31T14:39:56.914Z,46.70
2017-12-31T14:42:25.922Z,46.70
2017-12-31T14:44:54.325Z,46.80
2017-12-31T14:47:23.558Z,47.20
2017-12-31T14:49:52.635Z,48.20
2017-12-31T14:52:20.813Z,48.10
2017-12-31T14:54:49.566Z,48.60
2017-12-31T14:57:18.363Z,49.40
2017-12-31T14:59:47.261Z,50.70
2017-12-31T15:02:16.522Z,51.50
2017-12-31T15:04:44.661Z,52.40
2017-12-31T15:07:12.784Z,52.60
2017-12-31T15:09:42.027Z,53.20
2017-12-31T15:12:11.595Z,54.10
2017-12-31T15:14:39.665Z,54.10
2017-12-31T15:17:08.059Z,54.50
2017-12-31T15:19:38.337Z,55.00
2017-12-31T15:22:06.659Z,55.00
2017-12-31T15:24:35.677Z,56.30
2017-12-31T15:27:05.664Z,56.90
2017-12-31T15:29:34.252Z,56.60
2017-12-31T15:32:03.411Z,56.80
2017-12-31T15:34:31.702Z,56.60
2017-12-31T15:37:02.202Z,56.30
2017-12-31T15:39:31.343Z,56.30
2017-12-31T15:41:59.560Z,56.90
2017-12-31T15:44:27.556Z,56.00
2017-12-31T15:46:56.613Z,56.90
2017-12-31T15:49:26.313Z,56.80
2017-12-31T15:51:54.512Z,57.80
2017-12-31T15:54:23.535Z,57.80
2017-12-31T15:56:52.060Z,58.40
2017-12-31T15:59:20.772Z,59.20
2017-12-31T16:01:49.339Z,58.70
2017-12-31T16:04:19.621Z,59.50
2017-12-31T16:06:48.452Z,59.00
2017-12-31T16:09:18.132Z,59.90
2017-12-31T16:11:46.444Z,59.90
2017-12-31T16:14:15.281Z,60.30
2017-12-31T16:16:44.257Z,60.30
2017-12-31T16:19:13.733Z,60.50
2017-12-31T16:21:42.592Z,60.40
2017-12-31T16:24:11.550Z,60.50
2017-12-31T16:26:39.670Z,60.40
2017-12-31T16:29:08.199Z,60.60
2017-12-31T16:31:37.860Z,61.50
2017-12-31T16:34:07.401Z,61.40
2017-12-31T16:36:37.064Z,62.10
2017-12-31T16:39:05.566Z,61.60
2017-12-31T16:41:34.081Z,62.70
2017-12-31T16:44:03.426Z,62.70
2017-12-31T16:46:31.828Z,62.60
2017-12-31T16:49:01.395Z,62.70
2017-12-31T16:51:30.075Z,63.40
2017-12-31T16:53:59.917Z,64.00
2017-12-31T16:56:28.376Z,64.80
2017-12-31T16:58:57.800Z,65.70
2017-12-31T17:01:26.280Z,65.90
2017-12-31T17:03:55.680Z,66.60
2017-12-31T17:06:24.918Z,67.30
2017-12-31T17:08:54.506Z,67.00
2017-12-31T17:11:23.349Z,67.00
2017-12-31T17:13:52.264Z,67.00
2017-12-31T17:16:21.013Z,67.60
2017-12-31T17:18:50.261Z,68.90
2017-12-31T17:21:19.165Z,69.30
2017-12-31T17:23:48.359Z,71.50
2017-12-31T17:26:16.932Z,71.50
2017-12-31T17:28:46.280Z,72.20
2017-12-31T17:31:15.536Z,71.80
2017-12-31T17:33:44.844Z,72.70
2017-12-31T17:36:13.733Z,73.10
2017-12-31T17:38:42.760Z,74.10
2017-12-31T17:41:12.524Z,74.00
2017-12-31T17:43:40.982Z,74.40
2017-12-31T17:46:09.634Z,74.40
2017-12-31T17:48:39.380Z,75.10
2017-12-31T17:51:07.973Z,75.40
2017-12-31T17:53:36.534Z,75.10
2017-12-31T17:56:05.000Z,75.60
2017-12-31T17:58:34.077Z,75.20
2017-12-31T18:01:03.398Z,75.40
2017-12-31T18:03:32.240Z,75.10
2017-12-31T18:06:01.972Z,75.80
2017-12-31T18:08:30.993Z,76.00
2017-12-31T18:11:01.615Z,77.50
2017-12-31T18:13:30.109Z,77.40
2017-12-31T18:15:59.671Z,77.20
2017-12-31T18:18:28.718Z,77.40
2017-12-31T18:20:57.167Z,77.60
2017-12-31T18:23:27.082Z,77.60
2017-12-31T18:25:55.834Z,78.20
2017-12-31T18:28:25.599Z,78.10
2017-12-31T18:30:54.682Z,78.70
2017-12-31T18:33:25.101Z,78.90
2017-12-31T18:35:53.284Z,79.40
2017-12-31T18:38:21.959Z,79.90
2017-12-31T18:40:50.891Z,79.70
2017-12-31T18:43:20.226Z,80.90
2017-12-31T18:45:49.015Z,80.60
2017-12-31T18:48:18.229Z,81.30
2017-12-31T18:50:46.849Z,82.70
2017-12-31T18:53:15.873Z,82.20
2017-12-31T18:55:44.910Z,82.20
2017-12-31T18:58:13.011Z,83.40
2017-12-31T19:00:42.307Z,83.50
2017-12-31T19:03:10.912Z,82.60
2017-12-31T19:05:39.800Z,82.00
2017-12-31T19:08:08.326Z,81.80
2017-12-31T19:10:36.915Z,82.70
2017-12-31T19:13:05.703Z,82.30
2017-12-31T19:15:34.043Z,82.50
2017-12-31T19:18:03.046Z,83.40
2017-12-31T19:20:32.017Z,83.50
2017-12-31T19:23:01.260Z,82.70
2017-12-31T19:25:29.976Z,82.70
2017-12-31T19:27:59.343Z,81.70
2017-12-31T19:30:28.643Z,81.40
2017-12-31T19:32:57.341Z,81.00
2017-12-31T19:50:49.142Z,81.00
2017-12-31T19:53:18.994Z,82.20
2017-12-31T19:55:47.604Z,82.20
2017-12-31T19:58:15.963Z,81.90
2017-12-31T20:00:45.054Z,82.00
2017-12-31T20:03:13.748Z,82.40
2017-12-31T20:05:42.403Z,82.50
2017-12-31T20:08:11.752Z,83.50
2017-12-31T20:10:40.392Z,83.50
2017-12-31T20:13:09.075Z,82.90
2017-12-31T20:15:37.740Z,82.60
2017-12-31T20:18:07.104Z,82.90
2017-12-31T20:20:36.027Z,82.80
2017-12-31T20:23:06.553Z,83.90
2017-12-31T20:25:37.475Z,83.50
2017-12-31T20:28:07.517Z,84.80
2017-12-31T20:30:37.016Z,84.70
2017-12-31T20:33:06.283Z,84.80
2017-12-31T20:35:35.242Z,85.70
2017-12-31T20:38:05.514Z,85.20
2017-12-31T20:40:34.497Z,85.50
2017-12-31T20:43:03.215Z,84.90
2017-12-31T20:45:31.961Z,84.60
2017-12-31T20:48:00.343Z,84.90
2017-12-31T20:50:28.813Z,84.60
2017-12-31T20:52:57.601Z,85.30
2017-12-31T20:55:26.605Z,85.60
2017-12-31T20:57:55.986Z,84.80
2017-12-31T21:00:24.673Z,85.10
2017-12-31T21:02:53.686Z,85.10
2017-12-31T21:05:23.432Z,84.50
2017-12-31T21:07:53.909Z,84.60
2017-12-31T21:10:23.625Z,84.80
2017-12-31T21:12:52.604Z,85.40
2017-12-31T21:15:22.242Z,84.60
2017-12-31T21:17:51.237Z,84.80
2017-12-31T21:20:20.090Z,85.20
2017-12-31T21:22:49.172Z,84.60
2017-12-31T21:25:17.950Z,84.70
2017-12-31T21:27:46.183Z,84.50
2017-12-31T21:30:15.754Z,84.20
2017-12-31T21:32:45.385Z,84.20
2017-12-31T21:35:14.442Z,83.70
2017-12-31T21:37:43.332Z,83.70
2017-12-31T21:40:11.809Z,84.50
2017-12-31T21:42:41.053Z,84.80
2017-12-31T21:45:10.070Z,85.50
2017-12-31T21:47:39.726Z,85.50
2017-12-31T21:50:08.657Z,85.10
2017-12-31T21:52:37.596Z,85.00
2017-12-31T21:55:06.198Z,85.10
2017-12-31T21:57:34.859Z,84.90
2017-12-31T22:00:03.771Z,84.90
2017-12-31T22:02:32.859Z,85.50
2017-12-31T22:05:01.064Z,85.60
2017-12-31T22:07:29.596Z,86.20
2017-12-31T22:09:58.116Z,86.30
2017-12-31T22:12:26.800Z,86.60
2017-12-31T22:14:55.242Z,86.80
2017-12-31T22:17:23.834Z,86.70
2017-12-31T22:19:52.504Z,87.10
2017-12-31T22:22:22.607Z,87.50
2017-12-31T22:24:50.883Z,87.30
2017-12-31T22:27:19.602Z,87.60
2017-12-31T22:29:48.812Z,88.20
2017-12-31T22:32:16.888Z,87.20
2017-12-31T22:34:46.567Z,88.50
2017-12-31T22:37:15.203Z,88.30
2017-12-31T22:39:44.255Z,88.50
2017-12-31T22:42:13.707Z,88.00
2017-12-31T22:44:42.137Z,87.50
2017-12-31T22:47:10.858Z,87.10
2017-12-31T22:49:39.646Z,86.40
2017-12-31T22:52:09.127Z,86.70
2017-12-31T22:54:38.287Z,86.80
2017-12-31T22:57:07.064Z,86.70
2017-12-31T22:59:35.561Z,86.70
2017-12-31T23:02:04.052Z,86.60
2017-12-31T23:04:32.924Z,86.30
2017-12-31T23:07:01.341Z,86.20
2017-12-31T23:09:29.852Z,86.60
2017-12-31T23:11:58.556Z,86.80
2017-12-31T23:14:27.742Z,87.20
2017-12-31T23:16:56.889Z,87.90
2017-12-31T23:19:26.295Z,88.30
2017-12-31T23:21:55.764Z,88.90
2017-12-31T23:24:24.232Z,88.60
2017-12-31T23:26:53.841Z,88.30
2017-12-31T23:29:22.830Z,87.70
2017-12-31T23:31:52.468Z,86.40
2017-12-31T23:34:21.395Z,84.40
2017-12-31T23:36:49.888Z,83.10
2017-12-31T23:39:19.761Z,82.30
2017-12-31T23:41:48.402Z,81.90
2017-12-31T23:44:17.951Z,82.30
2017-12-31T23:46:46.748Z,83.00
2017-12-31T23:49:15.483Z,83.20
2017-12-31T23:51:44.292Z,84.00
2017-12-31T23:54:13.158Z,84.90
2017-12-31T23:56:42.311Z,85.00
2017-12-31T23:59:10.979Z,85.30
